createdAt,value
2023-06-07T00:02:07.462Z,8.43
2023-06-07T00:05:14.651Z,9.73
2023-06-07T00:08:19.322Z,6.22
2023-06-07T00:11:23.067Z,5.97
2023-06-07T00:14:26.541Z,8.50
2023-06-07T00:17:29.811Z,7.27
2023-06-07T00:20:34.144Z,8.27
2023-06-07T00:26:40.609Z,6.72
2023-06-07T00:29:43.624Z,6.95
2023-06-07T00:32:46.823Z,8.50
2023-06-07T00:35:51.614Z,8.52
2023-06-07T00:38:54.827Z,11.65
2023-06-07T00:41:57.771Z,8.18
2023-06-07T00:45:01.110Z,8.88
2023-06-07T00:48:04.551Z,6.77
2023-06-07T00:51:09.745Z,7.18
2023-06-07T00:54:13.985Z,9.18
2023-06-07T01:00:21.462Z,7.82
2023-06-07T01:03:25.201Z,9.57
2023-06-07T01:06:30.668Z,8.30
2023-06-07T01:09:33.638Z,7.95
2023-06-07T01:12:37.740Z,11.20
2023-06-07T01:15:41.362Z,5.22
2023-06-07T01:18:46.998Z,8.50
2023-06-07T01:21:53.753Z,5.50
2023-06-07T01:25:02.161Z,8.35
2023-06-07T01:28:07.286Z,4.38
2023-06-07T01:31:11.614Z,4.85
2023-06-07T01:34:16.366Z,4.82
2023-06-07T01:37:21.296Z,4.50
2023-06-07T01:40:26.766Z,6.53
2023-06-07T01:43:32.337Z,5.05
2023-06-07T01:46:37.162Z,5.55
2023-06-07T01:49:40.827Z,5.00
2023-06-07T01:52:44.478Z,4.93
2023-06-07T01:55:54.276Z,7.50
2023-06-07T01:59:09.144Z,8.23
2023-06-07T02:02:19.485Z,5.28
2023-06-07T02:05:28.763Z,8.05
2023-06-07T02:08:35.177Z,8.80
2023-06-07T02:11:42.664Z,4.72
2023-06-07T02:14:47.424Z,5.38
2023-06-07T02:17:59.130Z,4.85
2023-06-07T02:21:03.118Z,7.45
2023-06-07T02:24:07.703Z,6.65
2023-06-07T02:27:14.035Z,5.50
2023-06-07T02:30:17.781Z,5.88
2023-06-07T02:33:22.796Z,7.47
2023-06-07T02:36:26.960Z,9.57
2023-06-07T02:39:31.337Z,6.40
2023-06-07T02:42:36.324Z,5.45
2023-06-07T02:45:40.122Z,6.75
2023-06-07T02:48:43.783Z,5.93
2023-06-07T02:51:47.567Z,4.50
2023-06-07T02:54:51.277Z,7.30
2023-06-07T02:57:55.906Z,8.32
2023-06-07T03:00:59.793Z,8.00
2023-06-07T03:04:03.302Z,6.78
2023-06-07T03:07:07.749Z,5.47
2023-06-07T03:10:11.515Z,7.40
2023-06-07T03:13:16.781Z,4.45
2023-06-07T03:16:20.469Z,4.60
2023-06-07T03:19:24.043Z,12.38
2023-06-07T03:22:27.772Z,8.33
2023-06-07T03:25:31.549Z,11.98
2023-06-07T03:28:36.303Z,10.57
2023-06-07T03:31:39.640Z,5.97
2023-06-07T03:34:43.070Z,13.75
2023-06-07T03:37:46.943Z,7.63
2023-06-07T03:40:50.135Z,6.97
2023-06-07T03:43:56.993Z,12.35
2023-06-07T03:47:00.930Z,5.20
2023-06-07T03:50:05.115Z,9.43
2023-06-07T03:53:09.289Z,12.55
2023-06-07T03:56:12.517Z,5.97
2023-06-07T03:59:20.501Z,9.43
2023-06-07T04:02:23.817Z,7.95
2023-06-07T04:05:29.650Z,6.20
2023-06-07T04:08:33.267Z,7.50
2023-06-07T04:11:36.621Z,8.25
2023-06-07T04:14:41.516Z,11.83
2023-06-07T04:17:45.004Z,15.73
2023-06-07T04:20:48.299Z,8.55
2023-06-07T04:23:51.810Z,7.57
2023-06-07T04:26:57.237Z,7.20
2023-06-07T04:30:03.989Z,13.18
2023-06-07T04:33:10.253Z,6.28
2023-06-07T04:36:15.549Z,11.05
2023-06-07T04:39:42.922Z,8.27
2023-06-07T04:42:56.789Z,9.00
2023-06-07T04:46:02.411Z,8.18
2023-06-07T04:49:06.845Z,9.23
2023-06-07T04:52:13.351Z,7.30
2023-06-07T04:55:18.915Z,11.27
2023-06-07T04:58:22.343Z,10.50
2023-06-07T05:01:25.954Z,11.45
2023-06-07T05:04:29.549Z,9.65
2023-06-07T05:07:33.700Z,9.48
2023-06-07T05:10:39.377Z,10.45
2023-06-07T05:13:42.973Z,9.02
2023-06-07T05:16:48.587Z,13.43
2023-06-07T05:19:52.005Z,7.05
2023-06-07T05:22:56.015Z,9.93
2023-06-07T05:26:01.057Z,17.50
2023-06-07T05:29:04.897Z,9.45
2023-06-07T05:35:12.783Z,11.18
2023-06-07T05:38:17.055Z,9.13
2023-06-07T05:41:22.438Z,16.13
2023-06-07T05:44:26.022Z,10.43
2023-06-07T05:47:29.700Z,8.13
2023-06-07T05:50:33.404Z,10.18
2023-06-07T05:56:41.522Z,11.98
2023-06-07T05:59:45.210Z,7.55
2023-06-07T06:05:52.024Z,6.87
2023-06-07T06:08:55.258Z,5.70
2023-06-07T06:12:00.769Z,8.60
2023-06-07T06:15:05.261Z,7.60
2023-06-07T06:18:08.622Z,7.53
2023-06-07T06:21:12.292Z,10.20
2023-06-07T06:24:16.268Z,10.13
2023-06-07T06:27:21.869Z,9.38
2023-06-07T06:30:27.299Z,7.68
2023-06-07T06:33:31.296Z,7.65
2023-06-07T06:36:35.241Z,7.47
2023-06-07T06:39:38.541Z,9.50
2023-06-07T06:45:47.831Z,9.52
2023-06-07T06:49:07.171Z,7.93
2023-06-07T06:52:11.542Z,8.63
2023-06-07T06:55:14.959Z,8.18
2023-06-07T06:58:20.274Z,6.72
2023-06-07T07:01:24.307Z,9.68
2023-06-07T07:04:27.881Z,8.20
2023-06-07T07:10:34.828Z,6.13
2023-06-07T07:13:40.024Z,5.03
2023-06-07T07:16:46.591Z,7.78
2023-06-07T07:19:50.263Z,8.57
2023-06-07T07:25:56.997Z,7.88
2023-06-07T07:29:01.759Z,7.70
2023-06-07T07:32:05.557Z,6.88
2023-06-07T07:35:10.016Z,7.95
2023-06-07T07:38:17.270Z,8.68
2023-06-07T07:41:20.750Z,6.32
2023-06-07T07:44:26.205Z,14.35
2023-06-07T07:47:29.600Z,11.65
2023-06-07T07:50:33.581Z,9.23
2023-06-07T07:53:37.018Z,8.02
2023-06-07T07:56:40.268Z,10.68
2023-06-07T07:59:46.142Z,8.35
2023-06-07T08:02:49.662Z,8.43
2023-06-07T08:05:53.558Z,6.47
2023-06-07T08:12:00.491Z,6.83
2023-06-07T08:15:06.011Z,7.97
2023-06-07T08:18:09.301Z,9.10
2023-06-07T08:21:13.006Z,12.10
2023-06-07T08:24:16.361Z,8.57
2023-06-07T08:27:19.532Z,8.52
2023-06-07T08:30:24.919Z,11.48
2023-06-07T08:33:27.929Z,7.28
2023-06-07T08:36:31.799Z,9.93
2023-06-07T08:42:40.530Z,10.85
2023-06-07T08:45:46.299Z,12.20
2023-06-07T08:48:50.279Z,9.68
2023-06-07T08:55:11.661Z,9.57
2023-06-07T08:58:16.758Z,8.23
2023-06-07T09:01:22.921Z,9.23
2023-06-07T09:04:26.018Z,9.05
2023-06-07T09:07:29.469Z,10.67
2023-06-07T09:10:32.657Z,7.85
2023-06-07T09:13:36.775Z,9.27
2023-06-07T09:17:24.740Z,7.15
2023-06-07T09:20:29.399Z,6.28
2023-06-07T09:23:41.480Z,8.50
2023-06-07T09:26:44.558Z,6.43
2023-06-07T09:29:47.830Z,4.60
2023-06-07T09:32:55.323Z,7.90
2023-06-07T09:36:06.198Z,5.85
2023-06-07T09:39:21.293Z,5.22
2023-06-07T09:42:24.297Z,8.63
2023-06-07T09:45:28.306Z,6.60
2023-06-07T09:51:41.905Z,10.63
2023-06-07T09:54:46.456Z,8.48
2023-06-07T09:57:49.523Z,10.50
2023-06-07T10:00:53.697Z,7.82
2023-06-07T10:03:58.082Z,8.45
2023-06-07T10:07:03.001Z,7.75
2023-06-07T10:10:10.921Z,7.63
2023-06-07T10:13:15.775Z,12.70
2023-06-07T10:16:20.097Z,15.02
2023-06-07T10:19:28.725Z,16.40
2023-06-07T10:22:38.441Z,11.13
2023-06-07T10:25:45.782Z,10.10
2023-06-07T10:28:54.643Z,9.82
2023-06-07T10:32:07.858Z,10.55
2023-06-07T10:35:59.857Z,9.40
2023-06-07T10:39:02.959Z,8.25
2023-06-07T10:42:07.589Z,8.77
2023-06-07T10:45:16.047Z,13.68
2023-06-07T10:48:36.522Z,11.63
2023-06-07T10:52:06.680Z,11.85
2023-06-07T10:55:25.259Z,8.95
2023-06-07T10:58:29.334Z,12.70
2023-06-07T11:01:32.392Z,11.68
2023-06-07T11:07:19.884Z,9.75
2023-06-07T11:10:34.449Z,9.65
2023-06-07T11:14:13.149Z,11.82
2023-06-07T11:17:49.869Z,8.00
2023-06-07T11:20:53.454Z,9.25
2023-06-07T11:24:13.869Z,12.25
2023-06-07T11:27:21.131Z,12.93
2023-06-07T11:30:24.551Z,9.70
2023-06-07T11:33:28.783Z,10.48
2023-06-07T11:36:32.054Z,7.45
2023-06-07T11:39:37.004Z,8.57
2023-06-07T11:42:41.348Z,9.93
2023-06-07T11:45:45.244Z,5.97
2023-06-07T11:51:51.636Z,8.40
2023-06-07T11:54:56.359Z,7.97
2023-06-07T11:58:03.048Z,8.73
2023-06-07T12:01:06.824Z,6.88
2023-06-07T12:04:11.102Z,6.95
2023-06-07T12:07:22.201Z,6.10
2023-06-07T12:10:27.734Z,6.85
2023-06-07T12:13:37.436Z,8.25
2023-06-07T12:16:40.636Z,6.25
2023-06-07T12:19:43.828Z,10.67
2023-06-07T12:22:47.093Z,4.53
2023-06-07T12:25:53.297Z,9.27
2023-06-07T12:28:56.537Z,5.35
2023-06-07T12:32:02.193Z,6.80
2023-06-07T12:35:07.111Z,7.20
2023-06-07T12:38:13.671Z,5.68
2023-06-07T12:41:19.098Z,9.02
2023-06-07T12:44:22.908Z,4.63
2023-06-07T12:47:25.898Z,6.40
2023-06-07T12:50:28.870Z,4.57
2023-06-07T12:53:32.205Z,6.17
2023-06-07T12:56:57.380Z,5.18
2023-06-07T13:00:00.423Z,7.38
2023-06-07T13:03:03.541Z,10.20
2023-06-07T13:06:06.747Z,5.17
2023-06-07T13:09:12.094Z,5.93
2023-06-07T13:12:16.847Z,5.65
2023-06-07T13:15:20.249Z,5.57
2023-06-07T13:18:24.216Z,4.95
2023-06-07T13:24:30.933Z,5.45
2023-06-07T13:27:35.445Z,5.38
2023-06-07T13:30:38.580Z,4.00
2023-06-07T13:33:42.188Z,6.03
2023-06-07T13:36:45.359Z,5.32
2023-06-07T13:39:48.656Z,8.35
2023-06-07T13:42:54.613Z,6.30
2023-06-07T13:45:57.652Z,5.28
2023-06-07T13:49:00.871Z,4.30
2023-06-07T13:52:04.308Z,5.53
2023-06-07T13:55:09.486Z,8.55
2023-06-07T13:58:14.052Z,8.80
2023-06-07T14:01:18.344Z,6.55
2023-06-07T14:04:22.907Z,8.25
2023-06-07T14:07:26.568Z,8.65
2023-06-07T14:10:30.010Z,4.75
2023-06-07T14:13:35.936Z,8.85
2023-06-07T14:16:39.204Z,8.88
2023-06-07T14:19:43.236Z,6.32
2023-06-07T14:22:46.221Z,8.35
2023-06-07T14:25:49.261Z,5.47
2023-06-07T14:28:53.558Z,5.03
2023-06-07T14:31:56.669Z,9.70
2023-06-07T14:34:59.679Z,7.00
2023-06-07T14:38:02.776Z,5.97
2023-06-07T14:41:05.732Z,5.90
2023-06-07T14:44:10.081Z,5.43
2023-06-07T14:47:13.026Z,6.57
2023-06-07T14:50:16.324Z,6.20
2023-06-07T14:53:19.667Z,6.82
2023-06-07T14:56:23.241Z,7.07
2023-06-07T14:59:27.766Z,7.72
2023-06-07T15:02:31.168Z,8.15
2023-06-07T15:05:36.065Z,6.07
2023-06-07T15:08:39.508Z,5.10
2023-06-07T15:11:42.893Z,9.30
2023-06-07T15:14:47.725Z,9.35
2023-06-07T15:17:53.041Z,5.78
2023-06-07T15:20:56.989Z,9.35
2023-06-07T15:24:00.125Z,9.25
2023-06-07T15:27:03.417Z,7.70
2023-06-07T15:30:09.373Z,6.70
2023-06-07T15:33:13.817Z,8.65
2023-06-07T15:36:16.808Z,6.50
2023-06-07T15:39:20.269Z,6.70
2023-06-07T15:42:23.340Z,6.13
2023-06-07T15:45:28.125Z,5.95
2023-06-07T15:48:31.376Z,7.68
2023-06-07T15:51:34.324Z,8.20
2023-06-07T15:54:37.590Z,7.23
2023-06-07T15:57:40.535Z,9.30
2023-06-07T16:00:47.847Z,3.38
2023-06-07T16:03:56.473Z,6.25
2023-06-07T16:07:00.529Z,7.63
2023-06-07T16:10:07.216Z,4.63
2023-06-07T16:13:10.728Z,9.70
2023-06-07T16:16:15.365Z,9.82
2023-06-07T16:19:18.681Z,5.50
2023-06-07T16:22:21.671Z,6.05
2023-06-07T16:25:25.325Z,8.93
2023-06-07T16:28:28.289Z,8.27
2023-06-07T16:31:32.718Z,5.30
2023-06-07T16:34:35.886Z,4.40
2023-06-07T16:37:38.829Z,4.90
2023-06-07T16:40:41.797Z,6.18
2023-06-07T16:43:44.990Z,4.88
2023-06-07T16:46:49.887Z,5.13
2023-06-07T16:49:52.866Z,6.93
2023-06-07T16:52:55.894Z,3.92
2023-06-07T16:55:58.963Z,8.00
2023-06-07T16:59:01.878Z,7.10
2023-06-07T17:02:08.406Z,8.02
2023-06-07T17:05:11.527Z,6.57
2023-06-07T17:08:15.101Z,5.50
2023-06-07T17:11:18.115Z,7.00
2023-06-07T17:14:21.752Z,5.07
2023-06-07T17:17:26.825Z,6.22
2023-06-07T17:20:30.271Z,8.98
2023-06-07T17:23:33.546Z,5.35
2023-06-07T17:26:36.829Z,21.40
2023-06-07T17:29:39.830Z,4.63
2023-06-07T17:32:44.203Z,27.35
2023-06-07T17:35:47.457Z,26.65
2023-06-07T17:38:50.561Z,30.50
2023-06-07T17:41:53.559Z,32.87
2023-06-07T17:44:56.604Z,28.45
2023-06-07T17:48:00.910Z,18.33
2023-06-07T17:51:06.834Z,7.45
2023-06-07T17:54:10.118Z,5.93
2023-06-07T17:57:13.030Z,15.98
2023-06-07T18:00:17.202Z,17.95
2023-06-07T18:03:21.531Z,6.03
2023-06-07T18:06:25.344Z,4.22
2023-06-07T18:09:28.374Z,7.80
2023-06-07T18:12:31.349Z,4.20
2023-06-07T18:15:36.135Z,5.43
2023-06-07T18:18:40.663Z,6.78
2023-06-07T18:21:43.600Z,7.28
2023-06-07T18:24:46.562Z,12.63
2023-06-07T18:27:49.715Z,8.67
2023-06-07T18:30:52.629Z,9.43
2023-06-07T18:33:56.975Z,7.43
2023-06-07T18:37:00.238Z,7.40
2023-06-07T18:40:05.722Z,23.23
2023-06-07T18:43:11.655Z,7.93
2023-06-07T18:46:15.405Z,9.43
2023-06-07T18:49:21.505Z,9.52
2023-06-07T18:52:24.884Z,10.43
2023-06-07T18:55:28.102Z,5.05
2023-06-07T18:58:31.258Z,10.97
2023-06-07T19:01:50.262Z,15.40
2023-06-07T19:04:56.253Z,9.68
2023-06-07T19:08:00.166Z,10.13
2023-06-07T19:14:07.944Z,14.45
2023-06-07T19:17:11.626Z,13.05
2023-06-07T19:20:18.569Z,16.58
2023-06-07T19:23:21.580Z,14.55
2023-06-07T19:26:24.845Z,13.48
2023-06-07T19:30:39.172Z,15.98
2023-06-07T19:33:42.428Z,14.13
2023-06-07T19:36:45.626Z,8.30
2023-06-07T19:39:48.799Z,20.90
2023-06-07T19:42:51.967Z,23.40
2023-06-07T19:45:56.407Z,78.63
2023-06-07T19:49:01.396Z,42.80
2023-06-07T19:52:04.759Z,24.23
2023-06-07T19:55:08.877Z,25.50
2023-06-07T19:58:15.312Z,59.33
2023-06-07T20:01:21.131Z,114.78
2023-06-07T20:04:24.813Z,65.13
2023-06-07T20:07:28.555Z,99.72
2023-06-07T20:10:31.516Z,11.20
2023-06-07T20:13:34.590Z,9.50
2023-06-07T20:16:39.371Z,7.10
2023-06-07T20:19:42.379Z,20.20
2023-06-07T20:22:45.350Z,12.18
2023-06-07T20:25:48.735Z,5.40
2023-06-07T20:28:51.656Z,12.17
2023-06-07T20:31:56.061Z,6.38
2023-06-07T20:34:59.146Z,7.38
2023-06-07T20:38:02.156Z,15.65
2023-06-07T20:41:05.428Z,8.63
2023-06-07T20:44:10.125Z,12.07
2023-06-07T20:47:14.406Z,13.98
2023-06-07T20:50:17.762Z,9.98
2023-06-07T20:53:20.848Z,15.47
2023-06-07T20:56:23.944Z,8.65
2023-06-07T20:59:26.865Z,29.10
2023-06-07T21:02:31.913Z,24.55
2023-06-07T21:05:35.216Z,29.65
2023-06-07T21:08:39.295Z,31.13
2023-06-07T21:14:45.761Z,23.55
2023-06-07T21:17:50.543Z,10.98
2023-06-07T21:20:54.203Z,12.25
2023-06-07T21:23:57.387Z,7.68
2023-06-07T21:27:00.423Z,9.47
2023-06-07T21:30:03.725Z,8.73
2023-06-07T21:33:08.835Z,8.30
2023-06-07T21:36:11.862Z,8.57
2023-06-07T21:39:14.786Z,6.95
2023-06-07T21:42:18.135Z,10.27
2023-06-07T21:45:21.443Z,7.40
2023-06-07T21:48:25.776Z,7.00
2023-06-07T21:51:28.870Z,10.55
2023-06-07T21:54:32.176Z,12.07
2023-06-07T21:57:35.124Z,6.37
2023-06-07T22:00:38.099Z,8.00
2023-06-07T22:03:42.398Z,11.18
2023-06-07T22:06:45.642Z,7.15
2023-06-07T22:09:50.964Z,11.40
2023-06-07T22:12:55.635Z,7.20
2023-06-07T22:16:02.341Z,9.77
2023-06-07T22:19:09.682Z,9.50
2023-06-07T22:22:13.178Z,9.10
2023-06-07T22:25:27.145Z,8.27
2023-06-07T22:28:41.472Z,12.35
2023-06-07T22:31:45.051Z,12.52
2023-06-07T22:34:50.211Z,8.38
2023-06-07T22:37:56.796Z,9.27
2023-06-07T22:41:00.414Z,7.47
2023-06-07T22:44:04.383Z,6.97
2023-06-07T22:47:08.593Z,9.27
2023-06-07T22:50:13.639Z,11.07
2023-06-07T22:53:17.530Z,9.77
2023-06-07T22:56:20.909Z,11.60
2023-06-07T22:59:24.287Z,7.50
2023-06-07T23:02:30.238Z,8.55
2023-06-07T23:05:35.319Z,8.18
2023-06-07T23:08:39.487Z,6.75
2023-06-07T23:11:44.011Z,11.23
2023-06-07T23:14:49.434Z,6.05
2023-06-07T23:17:55.423Z,10.05
2023-06-07T23:21:01.855Z,10.27
2023-06-07T23:24:06.343Z,10.07
2023-06-07T23:27:09.897Z,9.63
2023-06-07T23:30:14.002Z,6.50
2023-06-07T23:33:18.270Z,6.40
2023-06-07T23:36:24.308Z,8.35
2023-06-07T23:39:28.800Z,8.82
2023-06-07T23:42:32.485Z,6.43
2023-06-07T23:45:36.023Z,6.85
2023-06-07T23:48:40.322Z,6.75
2023-06-07T23:51:45.436Z,5.93
2023-06-07T23:54:49.055Z,7.85
2023-06-07T23:57:53.170Z,6.85
